LICCLIMJ

Guest
Details From LICC - Catania Fontanarossa
To LIMJ - Genova Sestri
Flight Number -
Tags decoded
Created
Modified
Stats Distance 531 nm / 983 km
Max Altitude 0 ft / 0 m
Waypoints 6
Social Downloads 0
Likes 0
Share VATSIM

Download

Looking for another format? Having issues loading an existing format? Contact us
Advertisement - Login to hide

Notes

Requested: LICC INDAX PEKOD PNZ ELB LIMJ

Route

LICC INDAX PEKOD PNZ ELB LIMJ

ID Type Via Altitude Latitude Longitude Leg Dist Tot Dist Heading (true) Name
O LICC APT - 0 ft / 0 m 37.46678˚ 15.06640˚ - 0 nm - Catania Fontanarossa
INDAX FIX - 0 ft / 0 m 37.49639˚ 15.28917˚ 10 nm 10 nm 80° / 81° -
PEKOD FIX - 0 ft / 0 m 37.71778˚ 15.46278˚ 15 nm 26 nm 32° / 32° -
PNZ NDB - 0 ft / 0 m 40.91111˚ 12.95611˚ 224 nm 250 nm 330° / 328° PONZA NDB
ELB NDB - 0 ft / 0 m 42.73250˚ 10.39389˚ 158 nm 409 nm 314° / 313° ELBA NDB
O LIMJ APT - 0 ft / 0 m 44.41196˚ 8.84187˚ 121 nm 530 nm 327° / 326° Genova Sestri

Altitude Profile

Advertisement - Login to hide

Weather


0- 5 10 15 20 25 30 35+ Temperature / ° C

Clouds and Precipitation
Forecast for 2018-04-23 06:00 UTC. Updated 2 hours ago

Ground ~20,000 ft ~40,000 ft Winds

LICC

Details ICAO LICC (CTA)
Name Catania Fontanarossa
Region Italy
Timezone Europe/Rome (UTC+2.0)
Stats Elevation 39 ft / 12 m (AMSL)
Location 37.466779° 15.066401°
Runways 1
Magnetic Variation 3.250° E

METAR

LICC 230720Z 22004KT 170V250 CAVOK 19/12 Q1019

Decode

TAF

TAF LICC 230500Z 2306/2406 25006KT 8000 SCT030 BECMG 2308/2310 08012KT BECMG 2318/2320 VRB04KT

Decode

Departure Runways

ID Width Length Bearing (true) Bearing (mag) Surface Threshold Offset Overrun Length
08 148 ft / 45 m 7,985 ft / 2,434 m 83.94° 80.69° Asphalt 312 ft / 95 m 0 ft / 0 m
26 148 ft / 45 m 7,985 ft / 2,434 m 263.95° 260.70° Asphalt 279 ft / 85 m 0 ft / 0 m

LIMJ

Details ICAO LIMJ (GOA)
Name Genova Sestri
Region Italy
Timezone Unknown (UTC+0.0)
Stats Elevation 13 ft / 4 m (AMSL)
Location 44.411957° 8.841866°
Runways 1
Magnetic Variation 2.428° E

METAR

LIMJ 230720Z 31003KT 8000 BKN014 18/14 Q1019

Decode

TAF

TAF LIMJ 230500Z 2306/2406 VRB05KT 9999 SCT020 PROB40 TEMPO 2402/2406 SHRA

Decode

Destination Runways

ID Width Length Bearing (true) Bearing (mag) Surface Threshold Offset Overrun Length
10 148 ft / 45 m 9,574 ft / 2,918 m 105.39° 102.96° Asphalt 0 ft / 0 m 0 ft / 0 m
28 148 ft / 45 m 9,574 ft / 2,918 m 285.41° 282.98° Asphalt 538 ft / 164 m 0 ft / 0 m

Approach Navaids

Runway Type Ident Frequency Range Bearing (true) Bearing (mag) Slope Elevation
28 Localiser GSE 109.30 MHz 18 nm / 33 km 287.30° 284.87° - 9 ft / 3 m (AMSL)
28 Glidescope GSE 109.30 MHz 10 nm / 19 km 287.30° 284.87° 3.17° 26 ft / 8 m (AMSL)
28 DME GSE 109.30 MHz 18 nm / 33 km - - - 26 ft / 8 m (AMSL)

Popular Alternatives